createdAt,value
2022-09-09T00:01:21.857Z,99.90
2022-09-09T00:04:01.276Z,99.90
2022-09-09T00:06:50.021Z,99.90
2022-09-09T00:09:30.506Z,99.90
2022-09-09T00:12:16.068Z,99.90
2022-09-09T00:14:57.403Z,99.90
2022-09-09T00:17:40.967Z,99.90
2022-09-09T00:20:32.028Z,99.90
2022-09-09T00:23:20.802Z,99.90
2022-09-09T00:26:12.236Z,99.90
2022-09-09T00:29:09.526Z,99.90
2022-09-09T00:34:33.728Z,99.90
2022-09-09T00:37:01.145Z,99.90
2022-09-09T00:39:49.044Z,99.90
2022-09-09T00:42:35.247Z,99.90
2022-09-09T00:45:55.261Z,99.90
2022-09-09T00:48:33.690Z,99.90
2022-09-09T00:51:35.899Z,99.90
2022-09-09T00:54:23.999Z,99.90
2022-09-09T00:57:32.408Z,99.90
2022-09-09T01:00:23.789Z,99.90
2022-09-09T01:03:43.537Z,99.90
2022-09-09T01:06:32.426Z,99.90
2022-09-09T01:09:29.298Z,99.90
2022-09-09T01:12:07.589Z,99.90
2022-09-09T01:14:37.883Z,99.90
2022-09-09T01:17:23.585Z,99.90
2022-09-09T01:20:11.591Z,99.90
2022-09-09T01:23:01.105Z,99.90
2022-09-09T01:26:15.760Z,99.90
2022-09-09T01:28:49.938Z,99.90
2022-09-09T01:31:24.836Z,99.90
2022-09-09T01:36:30.323Z,99.90
2022-09-09T01:38:57.899Z,99.90
2022-09-09T01:43:55.911Z,99.90
2022-09-09T01:46:24.277Z,99.90
2022-09-09T01:48:55.902Z,99.90
2022-09-09T01:51:25.146Z,99.90
2022-09-09T01:53:52.486Z,99.90
2022-09-09T01:56:38.184Z,99.90
2022-09-09T01:59:22.932Z,99.90
2022-09-09T02:02:23.737Z,99.90
2022-09-09T02:04:57.862Z,99.90
2022-09-09T02:07:48.831Z,99.90
2022-09-09T02:10:32.017Z,99.90
2022-09-09T02:13:15.503Z,99.90
2022-09-09T02:16:04.648Z,99.90
2022-09-09T02:19:00.900Z,99.90
2022-09-09T02:21:36.076Z,99.90
2022-09-09T02:24:11.386Z,99.90
2022-09-09T02:26:43.720Z,99.90
2022-09-09T02:29:20.543Z,99.90
2022-09-09T02:31:50.962Z,99.90
2022-09-09T02:34:22.134Z,99.90
2022-09-09T02:36:51.941Z,99.90
2022-09-09T02:41:48.540Z,99.90
2022-09-09T02:44:19.364Z,99.90
2022-09-09T02:47:11.316Z,99.90
2022-09-09T02:50:03.322Z,99.90
2022-09-09T02:52:56.730Z,99.90
2022-09-09T02:55:46.718Z,99.90
2022-09-09T02:58:19.500Z,99.90
2022-09-09T03:00:53.736Z,99.90
2022-09-09T03:03:23.201Z,99.90
2022-09-09T03:05:50.931Z,99.90
2022-09-09T03:10:46.064Z,99.90
2022-09-09T03:18:11.656Z,99.90
2022-09-09T03:23:06.409Z,99.90
2022-09-09T03:25:35.151Z,99.90
2022-09-09T03:35:26.635Z,99.90
2022-09-09T03:47:47.227Z,99.90
2022-09-09T03:50:14.572Z,99.90
2022-09-09T03:52:43.958Z,99.90
2022-09-09T04:00:09.063Z,99.90
2022-09-09T04:02:36.618Z,99.90
2022-09-09T04:05:05.278Z,99.90
2022-09-09T04:07:33.465Z,99.90
2022-09-09T04:10:01.014Z,99.90
2022-09-09T04:12:28.350Z,99.90
2022-09-09T04:17:23.081Z,99.90
2022-09-09T04:27:16.206Z,99.90
2022-09-09T04:29:43.311Z,99.90
2022-09-09T04:32:10.488Z,99.90
2022-09-09T04:34:38.434Z,99.90
2022-09-09T04:37:05.699Z,99.90
2022-09-09T04:39:33.027Z,99.90
2022-09-09T04:42:00.362Z,99.90
2022-09-09T04:44:27.789Z,99.90
2022-09-09T04:49:23.937Z,99.90
2022-09-09T04:51:51.090Z,99.90
2022-09-09T04:54:18.967Z,99.90
2022-09-09T04:56:46.061Z,99.90
2022-09-09T04:59:13.140Z,99.90
2022-09-09T05:04:10.023Z,99.90
2022-09-09T05:11:37.813Z,99.90
2022-09-09T05:14:06.084Z,99.90
2022-09-09T05:16:33.441Z,99.90
2022-09-09T05:19:00.532Z,99.90
2022-09-09T05:28:52.752Z,99.90
2022-09-09T05:31:20.791Z,99.90
2022-09-09T05:33:50.563Z,99.90
2022-09-09T05:36:21.346Z,99.90
2022-09-09T05:38:49.399Z,99.90
2022-09-09T05:43:45.811Z,99.90
2022-09-09T05:46:25.950Z,99.90
2022-09-09T05:48:55.092Z,99.90
2022-09-09T05:51:25.723Z,99.90
2022-09-09T05:53:53.413Z,99.90
2022-09-09T05:56:26.870Z,99.90
2022-09-09T05:58:55.329Z,99.90
2022-09-09T06:01:28.227Z,99.90
2022-09-09T06:06:28.247Z,99.90
2022-09-09T06:08:59.352Z,99.90
2022-09-09T06:11:32.427Z,99.90
2022-09-09T06:14:00.227Z,99.90
2022-09-09T06:16:31.075Z,99.90
2022-09-09T06:18:59.025Z,99.90
2022-09-09T06:21:33.472Z,99.90
2022-09-09T06:24:01.564Z,99.90
2022-09-09T06:26:42.418Z,99.90
2022-09-09T06:31:38.984Z,99.90
2022-09-09T06:34:08.854Z,99.90
2022-09-09T06:36:39.575Z,99.90
2022-09-09T06:39:13.634Z,99.90
2022-09-09T06:44:12.915Z,99.90
2022-09-09T06:46:40.829Z,99.90
2022-09-09T06:49:10.715Z,99.90
2022-09-09T06:51:44.051Z,99.90
2022-09-09T06:54:13.350Z,99.90
2022-09-09T06:56:44.092Z,99.90
2022-09-09T06:59:13.298Z,99.90
2022-09-09T07:01:44.898Z,99.90
2022-09-09T07:04:13.910Z,99.90
2022-09-09T07:06:46.887Z,99.90
2022-09-09T07:09:17.097Z,99.40
2022-09-09T07:11:47.990Z,96.70
2022-09-09T07:16:45.193Z,92.80
2022-09-09T07:19:15.137Z,93.00
2022-09-09T07:21:43.139Z,90.90
2022-09-09T07:24:11.806Z,84.80
2022-09-09T07:26:40.395Z,80.60
2022-09-09T07:29:08.335Z,78.90
2022-09-09T07:31:41.119Z,77.20
2022-09-09T07:34:08.694Z,76.40
2022-09-09T07:36:41.002Z,73.70
2022-09-09T07:39:14.173Z,69.80
2022-09-09T07:42:05.421Z,67.40
2022-09-09T07:44:35.883Z,66.80
2022-09-09T07:47:04.504Z,66.30
2022-09-09T07:49:33.007Z,64.10
2022-09-09T07:52:00.437Z,59.50
2022-09-09T07:54:27.758Z,58.00
2022-09-09T08:01:55.744Z,55.40
2022-09-09T08:04:26.289Z,54.30
2022-09-09T08:09:26.235Z,50.30
2022-09-09T08:14:21.580Z,52.50
2022-09-09T08:16:51.025Z,51.40
2022-09-09T08:19:18.580Z,51.20
2022-09-09T08:21:46.599Z,52.20
2022-09-09T08:24:17.389Z,52.70
2022-09-09T08:26:48.383Z,50.60
2022-09-09T08:29:16.138Z,51.50
2022-09-09T08:31:53.293Z,51.70
2022-09-09T08:36:50.958Z,48.90
2022-09-09T08:39:23.313Z,49.90
2022-09-09T08:42:26.425Z,48.70
2022-09-09T08:45:20.920Z,47.20
2022-09-09T08:48:35.681Z,47.70
2022-09-09T08:51:04.592Z,48.30
2022-09-09T08:53:44.809Z,49.10
2022-09-09T08:56:19.370Z,47.40
2022-09-09T08:58:51.464Z,46.70
2022-09-09T09:01:51.780Z,48.20
2022-09-09T09:05:00.446Z,45.70
2022-09-09T09:07:32.868Z,46.80
2022-09-09T09:10:49.741Z,46.30
2022-09-09T09:13:31.253Z,44.30
2022-09-09T09:16:15.946Z,44.80
2022-09-09T09:21:34.656Z,43.50
2022-09-09T09:24:03.514Z,42.70
2022-09-09T09:26:36.774Z,41.70
2022-09-09T09:29:16.168Z,41.90
2022-09-09T09:31:57.919Z,42.60
2022-09-09T09:36:59.768Z,41.20
2022-09-09T09:42:23.080Z,41.60
2022-09-09T09:44:50.996Z,40.50
2022-09-09T09:47:24.711Z,41.50
2022-09-09T09:50:01.174Z,41.90
2022-09-09T09:52:33.341Z,42.80
2022-09-09T09:55:07.793Z,42.10
2022-09-09T10:00:18.613Z,45.10
2022-09-09T10:02:48.180Z,42.30
2022-09-09T10:05:27.296Z,43.60
2022-09-09T10:08:20.780Z,42.60
2022-09-09T10:13:31.237Z,47.20
2022-09-09T10:16:18.656Z,43.20
2022-09-09T10:19:02.230Z,45.00
2022-09-09T10:21:51.058Z,45.70
2022-09-09T10:24:51.904Z,46.40
2022-09-09T10:27:43.967Z,46.00
2022-09-09T10:30:25.310Z,45.00
2022-09-09T10:33:17.041Z,46.00
2022-09-09T10:35:53.132Z,46.30
2022-09-09T10:38:46.155Z,45.80
2022-09-09T10:41:47.000Z,46.50
2022-09-09T10:44:36.957Z,49.30
2022-09-09T10:47:29.541Z,47.10
2022-09-09T10:51:13.284Z,48.90
2022-09-09T10:54:06.271Z,44.60
2022-09-09T10:56:37.138Z,45.50
2022-09-09T10:59:36.645Z,45.40
2022-09-09T11:02:29.390Z,45.10
2022-09-09T11:05:01.332Z,44.30
2022-09-09T11:07:57.365Z,47.40
2022-09-09T11:11:08.571Z,43.30
2022-09-09T11:13:57.505Z,45.70
2022-09-09T11:16:43.117Z,45.60
2022-09-09T11:19:36.520Z,43.20
2022-09-09T11:22:39.778Z,43.80
2022-09-09T11:27:41.792Z,41.30
2022-09-09T11:30:44.245Z,39.60
2022-09-09T11:33:46.005Z,41.70
2022-09-09T11:36:50.572Z,43.40
2022-09-09T11:39:40.737Z,43.20
2022-09-09T11:42:14.021Z,44.10
2022-09-09T11:44:42.867Z,45.10
2022-09-09T11:47:32.977Z,45.80
2022-09-09T11:50:16.693Z,46.20
2022-09-09T11:52:47.557Z,44.20
2022-09-09T11:55:34.072Z,42.20
2022-09-09T11:58:18.247Z,44.10
2022-09-09T12:00:49.339Z,43.90
2022-09-09T12:03:47.199Z,43.00
2022-09-09T12:06:29.547Z,44.90
2022-09-09T12:09:09.095Z,41.30
2022-09-09T12:14:03.898Z,45.10
2022-09-09T12:16:38.405Z,45.90
2022-09-09T12:19:26.448Z,46.40
2022-09-09T12:22:10.896Z,47.40
2022-09-09T12:24:53.445Z,44.30
2022-09-09T12:27:32.165Z,46.80
2022-09-09T12:30:17.171Z,48.40
2022-09-09T12:32:45.857Z,48.50
2022-09-09T12:35:23.039Z,45.70
2022-09-09T12:38:27.476Z,48.60
2022-09-09T12:40:59.935Z,48.70
2022-09-09T12:43:28.931Z,48.10
2022-09-09T12:46:08.338Z,48.00
2022-09-09T12:48:45.294Z,49.10
2022-09-09T12:51:32.699Z,50.30
2022-09-09T12:54:01.241Z,50.20
2022-09-09T12:56:34.067Z,52.30
2022-09-09T13:01:33.601Z,50.70
2022-09-09T13:04:01.607Z,53.70
2022-09-09T13:06:34.312Z,50.40
2022-09-09T13:09:03.815Z,51.00
2022-09-09T13:11:48.385Z,49.60
2022-09-09T13:14:31.505Z,50.00
2022-09-09T13:17:02.827Z,50.80
2022-09-09T13:19:39.944Z,51.00
2022-09-09T13:22:30.321Z,50.20
2022-09-09T13:25:26.730Z,47.90
2022-09-09T13:28:03.739Z,49.90
2022-09-09T13:30:38.038Z,50.00
2022-09-09T13:33:07.245Z,50.40
2022-09-09T13:38:10.738Z,49.90
2022-09-09T13:40:39.433Z,52.50
2022-09-09T13:46:22.547Z,51.40
2022-09-09T13:49:23.128Z,53.20
2022-09-09T13:52:15.471Z,51.60
2022-09-09T13:54:43.563Z,53.10
2022-09-09T13:57:19.366Z,53.90
2022-09-09T14:00:04.016Z,54.90
2022-09-09T14:05:00.261Z,54.30
2022-09-09T14:07:28.565Z,53.40
2022-09-09T14:12:23.627Z,55.00
2022-09-09T14:29:37.192Z,56.20
2022-09-09T14:32:07.384Z,57.90
2022-09-09T14:34:36.637Z,59.50
2022-09-09T14:37:03.889Z,58.50
2022-09-09T14:39:31.117Z,59.80
2022-09-09T14:44:26.934Z,61.40
2022-09-09T14:46:55.259Z,59.10
2022-09-09T14:49:22.547Z,58.70
2022-09-09T14:51:49.680Z,60.00
2022-09-09T14:56:45.431Z,60.20
2022-09-09T15:09:08.533Z,61.30
2022-09-09T15:11:39.187Z,59.00
2022-09-09T15:14:08.796Z,57.40
2022-09-09T15:19:04.544Z,57.10
2022-09-09T15:21:35.597Z,58.00
2022-09-09T15:26:31.319Z,60.90
2022-09-09T15:31:31.613Z,60.00
2022-09-09T15:34:02.265Z,59.80
2022-09-09T15:36:45.338Z,60.00
2022-09-09T15:39:16.927Z,60.40
2022-09-09T15:41:49.138Z,61.70
2022-09-09T15:44:17.125Z,63.60
2022-09-09T15:46:54.724Z,62.70
2022-09-09T15:49:26.454Z,62.90
2022-09-09T15:51:59.360Z,65.60
2022-09-09T15:54:27.902Z,64.80
2022-09-09T15:56:59.194Z,65.80
2022-09-09T15:59:32.206Z,67.20
2022-09-09T16:04:30.680Z,67.40
2022-09-09T16:07:02.353Z,67.80
2022-09-09T16:09:30.863Z,69.40
2022-09-09T16:12:02.098Z,68.90
2022-09-09T16:19:27.224Z,71.60
2022-09-09T16:26:52.288Z,74.40
2022-09-09T16:29:20.462Z,75.10
2022-09-09T16:34:19.358Z,78.10
2022-09-09T16:36:49.385Z,81.60
2022-09-09T16:39:19.811Z,81.10
2022-09-09T16:41:49.957Z,82.20
2022-09-09T16:44:20.286Z,83.70
2022-09-09T16:46:56.645Z,86.40
2022-09-09T16:49:28.628Z,90.30
2022-09-09T16:56:55.534Z,94.40
2022-09-09T16:59:24.530Z,96.00
2022-09-09T17:04:27.786Z,95.90
2022-09-09T17:06:58.343Z,96.50
2022-09-09T17:09:30.358Z,97.50
2022-09-09T17:14:25.622Z,98.70
2022-09-09T17:24:39.514Z,99.90
2022-09-09T17:27:07.109Z,99.90
2022-09-09T17:29:37.010Z,99.90
2022-09-09T17:32:06.476Z,99.90
2022-09-09T17:34:34.620Z,99.90
2022-09-09T17:44:25.578Z,99.90
2022-09-09T17:49:20.444Z,99.90
2022-09-09T17:54:19.729Z,99.90
2022-09-09T17:56:48.848Z,99.90
2022-09-09T17:59:18.505Z,99.90
2022-09-09T18:01:51.017Z,99.90
2022-09-09T18:06:53.060Z,99.90
2022-09-09T18:09:26.745Z,99.90
2022-09-09T18:11:57.623Z,99.90
2022-09-09T18:14:30.546Z,99.90
2022-09-09T18:17:00.845Z,99.90
2022-09-09T18:19:30.906Z,99.90
2022-09-09T18:22:01.748Z,99.90
2022-09-09T18:31:55.869Z,99.90
2022-09-09T18:34:25.935Z,99.90
2022-09-09T18:36:56.241Z,99.90
2022-09-09T18:39:28.236Z,99.90
2022-09-09T18:42:00.703Z,99.90
2022-09-09T18:44:34.698Z,99.90
2022-09-09T18:47:03.761Z,99.90
2022-09-09T18:49:31.260Z,99.90
2022-09-09T18:54:31.465Z,99.90
2022-09-09T18:59:29.374Z,99.90
2022-09-09T19:06:58.364Z,99.90
2022-09-09T19:09:32.590Z,99.90
2022-09-09T19:12:01.408Z,99.90
2022-09-09T19:14:29.842Z,99.90
2022-09-09T19:19:34.734Z,99.90
2022-09-09T19:22:03.363Z,99.90
2022-09-09T19:24:33.470Z,99.90
2022-09-09T19:27:07.024Z,99.90
2022-09-09T19:29:37.256Z,99.90
2022-09-09T19:34:53.240Z,99.90
2022-09-09T19:37:20.877Z,99.90
2022-09-09T19:39:50.406Z,99.90
2022-09-09T19:42:23.013Z,99.90
2022-09-09T19:47:19.631Z,99.90
2022-09-09T19:54:45.203Z,99.90
2022-09-09T19:57:13.357Z,99.90
2022-09-09T19:59:41.246Z,99.90
2022-09-09T20:02:13.079Z,99.90
2022-09-09T20:09:36.513Z,99.90
2022-09-09T20:12:06.976Z,99.90
2022-09-09T20:14:38.710Z,99.90
2022-09-09T20:24:29.714Z,99.90
2022-09-09T20:26:56.763Z,99.90
2022-09-09T20:34:27.364Z,99.90
2022-09-09T20:39:22.877Z,99.90
2022-09-09T20:44:24.717Z,99.90
2022-09-09T20:47:02.843Z,99.90
2022-09-09T20:49:30.388Z,99.90
2022-09-09T20:54:28.068Z,99.90
2022-09-09T20:56:56.283Z,99.90
2022-09-09T20:59:26.343Z,99.90
2022-09-09T21:01:54.591Z,99.90
2022-09-09T21:04:22.786Z,99.90
2022-09-09T21:06:51.323Z,99.90
2022-09-09T21:09:20.728Z,99.90
2022-09-09T21:19:10.687Z,99.90
2022-09-09T21:26:33.593Z,99.90
2022-09-09T21:34:00.304Z,99.90
2022-09-09T21:38:59.274Z,99.90
2022-09-09T21:41:26.836Z,99.90
2022-09-09T21:43:54.778Z,99.90
2022-09-09T21:46:23.576Z,99.90
2022-09-09T21:48:51.012Z,99.90
2022-09-09T21:56:19.245Z,99.90
2022-09-09T21:58:47.404Z,99.90
2022-09-09T22:01:18.173Z,99.90
2022-09-09T22:03:46.493Z,99.90
2022-09-09T22:06:17.403Z,99.90
2022-09-09T22:08:46.803Z,99.90
2022-09-09T22:11:22.317Z,99.90
2022-09-09T22:13:50.704Z,99.90
2022-09-09T22:16:21.243Z,99.90
2022-09-09T22:19:00.535Z,99.90
2022-09-09T22:21:30.418Z,99.90
2022-09-09T22:24:02.354Z,99.90
2022-09-09T22:26:34.516Z,99.90
2022-09-09T22:29:02.131Z,99.90
2022-09-09T22:31:29.536Z,99.90
2022-09-09T22:38:54.710Z,99.90
2022-09-09T22:41:22.100Z,99.90
2022-09-09T22:46:18.886Z,99.90
2022-09-09T22:48:46.063Z,99.90
2022-09-09T22:51:15.705Z,99.90
2022-09-09T22:53:45.250Z,99.90
2022-09-09T22:56:19.189Z,99.90
2022-09-09T22:58:48.115Z,99.90
2022-09-09T23:01:19.407Z,99.90
2022-09-09T23:06:23.031Z,99.90
2022-09-09T23:08:58.097Z,99.90
2022-09-09T23:11:31.506Z,99.90
2022-09-09T23:14:02.051Z,99.90
2022-09-09T23:16:40.069Z,99.90
2022-09-09T23:19:15.262Z,99.90
2022-09-09T23:21:45.053Z,99.90
2022-09-09T23:24:16.040Z,99.90
2022-09-09T23:26:45.722Z,99.90
2022-09-09T23:31:46.047Z,99.90
2022-09-09T23:36:43.068Z,99.90
2022-09-09T23:39:13.364Z,99.90
2022-09-09T23:41:41.149Z,99.90
2022-09-09T23:46:36.817Z,99.90
2022-09-09T23:49:04.520Z,99.90
2022-09-09T23:51:32.297Z,99.90
2022-09-09T23:54:04.730Z,99.90
2022-09-09T23:56:42.461Z,99.90
